Time;durP1;ratioP1;P1;durP2;ratioP2;P2;SDS_P1;SDS_P2;PMS_P1;PMS_P2;Temp;Humidity;BMP_temperature;BMP_pressure;BME280_temperature;BME280_humidity;BME280_pressure;Samples;Min_cycle;Max_cycle;Signal;HPM_P1;HPM_P2
2022/06/02 00:00:19;;;;;;;11.75;6.65;;;9.60;99.90;;;;;;5037870;28;20124;-73
2022/06/02 00:03:10;;;;;;;5.88;5.35;;;9.50;99.90;;;;;;5037818;28;20124;-73
2022/06/02 00:05:50;;;;;;;5.90;5.30;;;9.50;99.90;;;;;;5037733;28;20136;-72
2022/06/02 00:08:25;;;;;;;6.63;5.55;;;9.50;99.90;;;;;;5037603;28;20037;-72
2022/06/02 00:10:56;;;;;;;8.07;6.68;;;9.40;99.90;;;;;;5034190;28;20091;-73
2022/06/02 00:14:03;;;;;;;7.40;6.70;;;9.40;99.90;;;;;;5034834;28;20076;-72
2022/06/02 00:16:39;;;;;;;10.25;8.32;;;9.50;99.90;;;;;;5035428;28;20088;-73
2022/06/02 00:19:18;;;;;;;7.85;7.15;;;9.40;99.90;;;;;;5034795;28;20048;-73
2022/06/02 00:21:57;;;;;;;7.05;6.35;;;9.40;99.90;;;;;;5034502;28;20084;-73
2022/06/02 00:24:35;;;;;;;4.82;4.40;;;9.40;99.90;;;;;;5034640;28;20183;-72
2022/06/02 00:27:40;;;;;;;5.10;4.65;;;9.40;99.90;;;;;;5034927;28;20469;-73
2022/06/02 00:30:38;;;;;;;5.90;5.35;;;9.30;99.90;;;;;;5017814;28;20041;-73
2022/06/02 00:33:35;;;;;;;7.82;5.68;;;9.30;99.90;;;;;;5033558;28;20509;-72
2022/06/02 00:36:08;;;;;;;8.02;6.00;;;9.30;99.90;;;;;;5034296;28;20191;-73
2022/06/02 00:38:38;;;;;;;7.55;6.85;;;9.30;99.90;;;;;;5034192;28;20052;-73
2022/06/02 00:41:41;;;;;;;11.20;9.40;;;9.30;99.90;;;;;;5017847;28;20119;-73
2022/06/02 00:44:25;;;;;;;9.40;8.50;;;9.30;99.90;;;;;;5004012;28;20083;-73
2022/06/02 00:47:33;;;;;;;7.78;7.07;;;9.30;99.90;;;;;;5034255;28;20099;-72
2022/06/02 00:50:07;;;;;;;8.75;7.75;;;9.30;99.90;;;;;;5017432;28;20087;-73
2022/06/02 00:52:52;;;;;;;15.52;4.95;;;9.30;99.90;;;;;;5034224;28;20394;-73
2022/06/02 00:58:53;;;;;;;6.38;5.43;;;9.20;99.90;;;;;;5033799;28;20127;-72
2022/06/02 01:01:29;;;;;;;6.18;5.28;;;9.10;99.90;;;;;;5034330;28;20033;-73
2022/06/02 01:03:56;;;;;;;6.10;5.50;;;9.10;99.90;;;;;;5033566;28;20406;-73
2022/06/02 01:06:36;;;;;;;7.35;6.30;;;9.10;99.90;;;;;;5033575;28;20056;-73
2022/06/02 01:09:25;;;;;;;8.93;7.90;;;9.00;99.90;;;;;;5033854;28;20092;-73
2022/06/02 01:12:17;;;;;;;7.40;6.72;;;9.00;99.90;;;;;;5033587;28;20045;-73
2022/06/02 01:15:12;;;;;;;8.77;7.88;;;9.00;99.90;;;;;;5033384;28;20038;-73
2022/06/02 01:17:50;;;;;;;19.95;7.35;;;8.90;99.90;;;;;;5033377;28;20454;-72
2022/06/02 01:20:40;;;;;;;51.65;4.75;;;8.90;99.90;;;;;;5033074;28;20077;-73
2022/06/02 01:23:21;;;;;;;7.82;2.45;;;8.80;99.90;;;;;;5033331;28;20134;-73
2022/06/02 01:26:06;;;;;;;12.35;4.00;;;8.70;99.90;;;;;;5033263;28;20041;-72
2022/06/02 01:28:59;;;;;;;5.50;4.95;;;8.70;99.90;;;;;;5033245;28;20099;-73
2022/06/02 01:32:03;;;;;;;8.52;5.97;;;8.70;99.90;;;;;;5033220;28;20045;-69
2022/06/02 01:34:53;;;;;;;7.70;5.88;;;8.70;99.90;;;;;;4956972;28;20046;-69
2022/06/02 01:37:30;;;;;;;9.25;6.75;;;8.70;99.90;;;;;;4957328;28;20055;-70
2022/06/02 01:40:04;;;;;;;7.90;7.20;;;8.60;99.90;;;;;;4957498;28;20051;-69
2022/06/02 01:42:48;;;;;;;8.38;7.35;;;8.60;99.90;;;;;;4957295;28;20075;-69
2022/06/02 01:45:31;;;;;;;9.18;8.13;;;8.70;99.90;;;;;;4957371;28;20263;-70
2022/06/02 01:48:23;;;;;;;8.32;7.53;;;8.70;99.90;;;;;;4957197;28;20109;-70
2022/06/02 01:51:00;;;;;;;10.18;9.18;;;8.70;99.90;;;;;;4957348;28;20550;-69
2022/06/02 01:53:43;;;;;;;16.70;7.85;;;8.70;99.90;;;;;;4957099;28;20057;-70
2022/06/02 01:56:27;;;;;;;;;;;8.70;99.90;;;;;;4957469;28;20646;-69
2022/06/02 01:59:01;;;;;;;8.60;7.53;;;8.50;99.90;;;;;;4956867;28;19918;-69
2022/06/02 02:01:33;;;;;;;8.25;7.45;;;8.50;99.90;;;;;;4956898;28;20039;-69
2022/06/02 02:04:15;;;;;;;10.10;6.80;;;8.50;99.90;;;;;;4956839;28;20138;-69
2022/06/02 02:06:48;;;;;;;7.55;5.90;;;8.60;99.90;;;;;;5076639;22;20048;-68
2022/06/02 02:09:42;;;;;;;5.60;5.05;;;8.50;99.90;;;;;;5052420;28;20041;-68
2022/06/02 02:12:32;;;;;;;10.02;6.65;;;8.50;99.90;;;;;;5052379;28;20124;-68
2022/06/02 02:15:12;;;;;;;7.85;7.07;;;8.50;99.90;;;;;;5052747;28;20052;-68
2022/06/02 02:17:56;;;;;;;8.32;5.68;;;8.50;99.90;;;;;;5052482;28;20056;-68
2022/06/02 02:21:06;;;;;;;6.50;5.90;;;8.50;99.90;;;;;;5052480;28;20040;-68
2022/06/02 02:23:51;;;;;;;5.20;4.70;;;8.50;99.90;;;;;;5043378;28;20473;-68
2022/06/02 02:26:33;;;;;;;7.13;6.43;;;8.40;99.90;;;;;;5052354;28;20098;-68
2022/06/02 02:29:45;;;;;;;10.45;9.38;;;8.40;99.90;;;;;;5052133;28;20119;-68
2022/06/02 02:32:40;;;;;;;4.93;4.43;;;8.50;99.90;;;;;;5022817;28;20500;-68
2022/06/02 02:35:14;;;;;;;72.75;6.15;;;8.40;99.90;;;;;;5035325;28;20052;-68
2022/06/02 02:38:01;;;;;;;48.25;5.63;;;8.30;99.90;;;;;;5051870;28;20086;-68
2022/06/02 02:40:36;;;;;;;4.65;4.25;;;8.20;99.90;;;;;;5052266;28;20043;-68
2022/06/02 02:43:10;;;;;;;4.88;4.47;;;8.20;99.90;;;;;;5051921;28;20047;-68
2022/06/02 02:45:53;;;;;;;4.70;4.22;;;8.20;99.90;;;;;;5051896;28;20083;-68
2022/06/02 02:48:25;;;;;;;5.60;5.10;;;8.20;99.90;;;;;;5051808;28;20041;-68
2022/06/02 02:51:03;;;;;;;7.20;6.05;;;8.10;99.90;;;;;;5052091;28;20059;-68
2022/06/02 02:53:35;;;;;;;6.75;6.05;;;8.10;99.90;;;;;;5051753;28;20044;-68
2022/06/02 02:56:22;;;;;;;8.18;7.38;;;8.10;99.90;;;;;;5051675;28;20052;-68
2022/06/02 02:58:58;;;;;;;8.82;7.95;;;8.20;99.90;;;;;;5051701;28;20045;-68
2022/06/02 03:01:35;;;;;;;8.63;6.22;;;8.10;99.90;;;;;;5035306;28;20095;-68
2022/06/02 03:04:19;;;;;;;5.85;5.25;;;8.10;99.90;;;;;;5035053;28;20037;-68
2022/06/02 03:06:47;;;;;;;6.63;5.93;;;8.10;99.90;;;;;;5051412;28;20048;-68
2022/06/02 03:09:13;;;;;;;5.88;5.30;;;8.00;99.90;;;;;;5051663;28;20049;-68
2022/06/02 03:11:50;;;;;;;6.72;6.03;;;8.00;99.90;;;;;;5035248;28;20037;-68
2022/06/02 03:14:16;;;;;;;8.88;7.70;;;8.00;99.90;;;;;;5051561;28;20051;-68
2022/06/02 03:16:42;;;;;;;7.47;6.78;;;8.00;99.90;;;;;;5051345;28;20469;-68
2022/06/02 03:19:16;;;;;;;8.75;6.68;;;8.00;99.90;;;;;;5035136;28;20033;-68
2022/06/02 03:22:04;;;;;;;8.00;7.20;;;8.00;99.90;;;;;;5051474;28;20074;-68
2022/06/02 03:25:08;;;;;;;7.63;6.93;;;8.00;99.90;;;;;;5051478;28;20068;-68
2022/06/02 03:27:47;;;;;;;;;;;8.00;99.90;;;;;;4975690;28;20077;-68
2022/06/02 03:30:24;;;;;;;8.68;7.82;;;7.80;99.90;;;;;;4975137;28;19984;-68
2022/06/02 03:33:20;;;;;;;9.43;8.45;;;7.90;99.90;;;;;;4975514;28;20073;-68
2022/06/02 03:36:17;;;;;;;9.57;8.63;;;7.90;99.90;;;;;;4974968;28;20458;-68
2022/06/02 03:39:08;;;;;;;9.57;7.70;;;7.90;99.90;;;;;;4975112;28;20173;-68
2022/06/02 03:41:47;;;;;;;13.77;6.10;;;7.90;99.90;;;;;;4959238;28;20533;-68
2022/06/02 03:44:24;;;;;;;180.15;10.30;;;7.90;99.90;;;;;;4976719;28;20038;-68
2022/06/02 03:47:20;;;;;;;6.30;4.47;;;7.80;99.90;;;;;;4962811;28;20521;-68
2022/06/02 03:50:08;;;;;;;5.07;3.83;;;7.90;99.90;;;;;;4962507;28;20042;-68
2022/06/02 03:52:58;;;;;;;7.57;6.55;;;7.80;99.90;;;;;;4978739;28;20061;-68
2022/06/02 03:55:51;;;;;;;7.72;7.03;;;7.80;99.90;;;;;;4978428;28;20046;-68
2022/06/02 03:58:31;;;;;;;8.98;8.07;;;7.80;99.90;;;;;;5014095;28;20118;-68
2022/06/02 04:01:00;;;;;;;10.95;9.70;;;7.90;99.90;;;;;;5038748;28;20032;-68
2022/06/02 04:04:00;;;;;;;10.63;9.40;;;7.90;99.90;;;;;;5054772;28;20465;-68
2022/06/02 04:07:11;;;;;;;10.73;9.35;;;7.90;99.90;;;;;;5054549;28;20052;-68
2022/06/02 04:09:55;;;;;;;11.93;9.73;;;8.00;99.90;;;;;;5054700;28;20040;-68
2022/06/02 04:15:54;;;;;;;11.52;10.43;;;8.10;99.90;;;;;;5054674;28;20045;-68
2022/06/02 04:18:20;;;;;;;12.30;10.65;;;8.10;99.90;;;;;;5054425;28;20056;-68
2022/06/02 04:20:53;;;;;;;11.68;10.55;;;8.10;99.90;;;;;;5054685;28;20048;-68
2022/06/02 04:23:26;;;;;;;12.75;11.43;;;8.20;99.90;;;;;;5055537;28;20040;-68
2022/06/02 04:26:13;;;;;;;12.70;11.40;;;8.20;99.90;;;;;;5054319;28;20037;-68
2022/06/02 04:28:49;;;;;;;12.88;11.55;;;8.30;99.90;;;;;;5054536;28;20040;-68
2022/06/02 04:31:48;;;;;;;14.65;11.32;;;8.30;99.90;;;;;;5054477;28;20090;-68
2022/06/02 04:34:56;;;;;;;13.25;11.77;;;8.40;99.90;;;;;;5054484;28;20044;-68
2022/06/02 04:37:49;;;;;;;12.25;11.05;;;8.40;99.90;;;;;;5054014;28;20048;-68
2022/06/02 04:40:44;;;;;;;13.07;11.68;;;8.50;99.90;;;;;;5054351;28;20044;-68
2022/06/02 04:43:37;;;;;;;12.55;11.07;;;8.50;99.90;;;;;;5054342;28;20045;-68
2022/06/02 04:46:27;;;;;;;13.05;10.98;;;8.60;99.90;;;;;;5054181;28;20443;-68
2022/06/02 04:49:03;;;;;;;15.07;12.18;;;8.70;99.90;;;;;;5053930;28;20060;-68
2022/06/02 04:52:01;;;;;;;13.00;11.55;;;8.70;99.90;;;;;;5053873;28;20512;-68
2022/06/02 04:54:57;;;;;;;11.63;10.52;;;8.80;99.90;;;;;;5023761;28;20049;-68
2022/06/02 04:57:33;;;;;;;12.38;11.18;;;8.90;99.90;;;;;;5053732;28;20045;-68
2022/06/02 05:00:07;;;;;;;13.93;11.23;;;9.00;99.90;;;;;;5053718;28;20496;-68
2022/06/02 05:02:37;;;;;;;14.15;12.02;;;9.00;99.90;;;;;;5053926;28;20484;-68
2022/06/02 05:05:30;;;;;;;15.20;12.48;;;9.10;99.90;;;;;;5053612;28;20485;-68
2022/06/02 05:08:12;;;;;;;13.70;11.55;;;9.20;99.90;;;;;;5053382;28;20083;-68
2022/06/02 05:11:07;;;;;;;12.63;10.98;;;9.30;99.90;;;;;;5053764;28;20037;-68
2022/06/02 05:13:46;;;;;;;15.60;11.85;;;9.40;99.90;;;;;;5053498;28;20048;-68
2022/06/02 05:16:40;;;;;;;14.85;12.48;;;9.50;99.90;;;;;;5053262;28;20052;-68
2022/06/02 05:19:40;;;;;;;11.65;10.45;;;9.60;99.90;;;;;;5018088;28;20045;-68
2022/06/02 05:22:37;;;;;;;12.93;11.60;;;9.70;99.90;;;;;;5053576;28;20123;-68
2022/06/02 05:25:54;;;;;;;12.77;10.60;;;9.80;99.90;;;;;;5053427;28;20113;-68
2022/06/02 05:28:36;;;;;;;11.57;10.35;;;9.90;99.90;;;;;;5011231;28;20056;-68
2022/06/02 05:31:23;;;;;;;12.68;11.07;;;9.90;99.90;;;;;;5053125;28;20055;-68
2022/06/02 05:34:15;;;;;;;12.45;11.15;;;10.00;99.90;;;;;;5053349;28;20106;-68
2022/06/02 05:37:17;;;;;;;11.95;10.68;;;10.10;99.90;;;;;;5052874;28;20158;-68
2022/06/02 05:40:00;;;;;;;15.23;10.95;;;10.20;99.90;;;;;;5035594;28;20045;-68
2022/06/02 05:42:32;;;;;;;11.48;9.88;;;10.20;99.90;;;;;;5036493;28;20072;-68
2022/06/02 05:45:25;;;;;;;12.05;10.05;;;10.30;99.90;;;;;;5053022;28;20408;-68
2022/06/02 05:48:00;;;;;;;14.05;9.90;;;10.40;99.90;;;;;;5052741;28;20037;-68
2022/06/02 05:51:08;;;;;;;11.43;9.35;;;10.50;99.90;;;;;;5052798;28;20032;-68
2022/06/02 05:53:58;;;;;;;12.25;9.70;;;10.60;99.90;;;;;;5052692;28;20033;-68
2022/06/02 05:56:32;;;;;;;9.65;8.55;;;10.60;99.90;;;;;;5052528;28;20044;-68
2022/06/02 05:59:19;;;;;;;9.57;8.32;;;10.70;99.90;;;;;;5052873;28;20045;-68
2022/06/02 06:02:09;;;;;;;10.35;8.27;;;10.80;99.90;;;;;;5052493;28;20037;-68
2022/06/02 06:05:02;;;;;;;9.27;7.50;;;10.90;99.90;;;;;;5052493;28;20405;-68
2022/06/02 06:08:14;;;;;;;9.80;7.43;;;11.00;99.90;;;;;;5051617;28;20467;-68
2022/06/02 06:10:45;;;;;;;9.20;6.65;;;11.10;99.90;;;;;;4976211;28;20285;-68
2022/06/02 06:13:35;;;;;;;8.05;7.00;;;11.10;99.90;;;;;;4976227;28;20046;-68
2022/06/02 06:16:12;;;;;;;6.55;5.93;;;11.30;99.90;;;;;;4959970;28;20046;-68
2022/06/02 06:18:52;;;;;;;9.48;6.03;;;11.30;99.90;;;;;;4975996;28;20104;-68
2022/06/02 06:21:31;;;;;;;8.20;5.20;;;11.50;99.90;;;;;;4976175;28;20046;-68
2022/06/02 06:24:28;;;;;;;9.88;5.15;;;11.50;99.90;;;;;;4975850;28;20046;-68
2022/06/02 06:27:10;;;;;;;7.97;4.82;;;11.60;99.90;;;;;;4975283;28;20086;-68
2022/06/02 06:29:43;;;;;;;5.18;4.00;;;11.70;99.90;;;;;;4975830;28;20462;-68
2022/06/02 06:32:27;;;;;;;4.32;3.92;;;11.70;99.90;;;;;;4975950;28;20089;-68
2022/06/02 06:35:06;;;;;;;6.95;3.92;;;11.80;99.90;;;;;;4992478;28;20455;-68
2022/06/02 06:37:45;;;;;;;6.53;3.63;;;11.90;99.90;;;;;;4975858;28;20507;-68
2022/06/02 06:40:37;;;;;;;5.38;3.85;;;11.90;99.90;;;;;;4975861;28;20121;-68
2022/06/02 06:43:23;;;;;;;5.75;3.95;;;12.00;99.90;;;;;;4988111;28;20042;-68
2022/06/02 06:46:17;;;;;;;3.92;3.40;;;12.10;99.90;;;;;;5051902;28;20076;-67
2022/06/02 06:48:51;;;;;;;;;;;12.10;99.90;;;;;;5052502;28;20443;-68
2022/06/02 06:51:46;;;;;;;4.63;2.70;;;12.20;99.90;;;;;;5051881;28;19917;-68
2022/06/02 06:54:26;;;;;;;4.70;2.33;;;12.30;99.90;;;;;;5035514;28;20045;-68
2022/06/02 06:56:57;;;;;;;5.00;2.80;;;12.30;99.90;;;;;;5051751;28;20044;-67
2022/06/02 07:00:03;;;;;;;5.18;2.10;;;12.40;99.90;;;;;;5051774;28;20048;-67
2022/06/02 07:03:07;;;;;;;2.97;1.75;;;12.50;99.90;;;;;;5052038;28;20079;-67
2022/06/02 07:05:38;;;;;;;4.78;1.80;;;12.60;99.90;;;;;;5051687;28;20037;-67
2022/06/02 07:08:33;;;;;;;4.82;1.98;;;12.70;99.90;;;;;;5051553;28;20611;-68
2022/06/02 07:14:36;;;;;;;5.25;1.90;;;12.90;99.90;;;;;;5051607;28;20041;-68
2022/06/02 07:17:12;;;;;;;4.32;1.98;;;13.00;99.90;;;;;;5051498;28;20124;-68
2022/06/02 07:20:17;;;;;;;2.58;1.60;;;13.10;99.90;;;;;;5054833;28;20048;-68
2022/06/02 07:22:46;;;;;;;2.85;1.52;;;13.20;99.90;;;;;;5044873;28;20047;-68
2022/06/02 07:25:28;;;;;;;3.40;1.77;;;13.30;99.90;;;;;;5055557;28;20041;-68
2022/06/02 07:28:09;;;;;;;6.53;1.80;;;13.40;99.90;;;;;;5055438;28;20506;-68
2022/06/02 07:31:01;;;;;;;3.75;1.90;;;13.50;99.90;;;;;;5038888;28;20477;-67
2022/06/02 07:33:34;;;;;;;2.55;1.33;;;13.70;99.90;;;;;;5055303;28;20044;-68
2022/06/02 07:36:25;;;;;;;2.65;1.35;;;13.80;99.90;;;;;;5055502;28;20115;-68
2022/06/02 07:39:30;;;;;;;3.58;1.45;;;13.90;99.90;;;;;;5055302;28;20206;-68
2022/06/02 07:42:21;;;;;;;5.05;1.80;;;13.90;99.90;;;;;;5055604;28;20040;-67
2022/06/02 07:45:09;;;;;;;3.13;1.80;;;13.90;99.90;;;;;;5055216;28;20087;-67
2022/06/02 07:47:53;;;;;;;4.32;2.30;;;14.10;99.90;;;;;;5055559;28;20053;-68
2022/06/02 07:50:30;;;;;;;5.35;2.20;;;14.10;99.90;;;;;;5038634;28;20041;-67
2022/06/02 07:53:21;;;;;;;4.53;2.00;;;14.20;99.90;;;;;;5056854;28;20056;-67
2022/06/02 07:56:23;;;;;;;5.45;1.98;;;14.20;99.90;;;;;;5054821;28;20447;-67
2022/06/02 07:59:18;;;;;;;4.20;2.07;;;14.10;99.90;;;;;;5054924;28;20396;-67
2022/06/02 08:02:22;;;;;;;3.42;1.80;;;14.20;99.90;;;;;;5054901;28;20408;-67
2022/06/02 08:05:09;;;;;;;3.60;1.73;;;14.50;99.90;;;;;;5042670;28;20084;-67
2022/06/02 08:07:48;;;;;;;5.13;1.88;;;14.60;99.90;;;;;;5054755;28;20041;-67
2022/06/02 08:10:22;;;;;;;3.22;2.20;;;14.60;99.90;;;;;;5055022;28;20067;-68
2022/06/02 08:12:48;;;;;;;3.00;1.83;;;14.60;99.90;;;;;;5038249;28;20174;-67
2022/06/02 08:15:30;;;;;;;3.80;1.90;;;14.70;99.90;;;;;;5054484;28;20127;-67
2022/06/02 08:18:02;;;;;;;4.20;1.90;;;14.90;99.90;;;;;;5054799;28;20056;-68
2022/06/02 08:20:42;;;;;;;3.67;1.70;;;14.90;99.90;;;;;;5054625;28;20077;-67
2022/06/02 08:23:23;;;;;;;4.35;1.52;;;14.80;99.90;;;;;;5037936;28;20433;-67
2022/06/02 08:25:55;;;;;;;4.97;1.80;;;14.70;99.90;;;;;;5054509;28;20045;-67
2022/06/02 08:28:39;;;;;;;6.45;1.80;;;14.60;99.90;;;;;;5054528;28;20045;-68
2022/06/02 08:31:33;;;;;;;3.50;1.77;;;14.80;99.90;;;;;;5053692;28;20045;-68
2022/06/02 08:34:16;;;;;;;5.90;1.73;;;15.00;99.90;;;;;;5054292;28;20047;-68
2022/06/02 08:37:06;;;;;;;2.75;1.38;;;15.20;99.90;;;;;;5054118;28;20045;-68
2022/06/02 08:39:57;;;;;;;4.03;1.30;;;15.30;99.90;;;;;;5054285;28;20045;-68
2022/06/02 08:42:40;;;;;;;2.78;1.30;;;15.20;99.90;;;;;;5054056;28;20511;-68
2022/06/02 08:45:44;;;;;;;2.88;1.50;;;15.10;99.90;;;;;;5053963;28;20044;-68
2022/06/02 08:48:31;;;;;;;2.55;1.38;;;15.20;99.90;;;;;;4977595;28;20038;-68
2022/06/02 08:51:09;;;;;;;3.97;1.30;;;15.40;99.90;;;;;;5050661;28;20045;-67
2022/06/02 08:54:19;;;;;;;2.67;1.50;;;15.50;99.90;;;;;;5053945;28;20052;-67
2022/06/02 08:57:12;;;;;;;3.08;1.10;;;15.90;99.90;;;;;;5053804;28;20119;-68
2022/06/02 08:59:47;;;;;;;2.17;1.30;;;16.00;99.90;;;;;;5037419;28;20501;-67
2022/06/02 09:02:53;;;;;;;3.03;1.20;;;16.10;99.90;;;;;;5053727;28;20052;-68
2022/06/02 09:06:02;;;;;;;2.80;1.33;;;16.10;99.90;;;;;;5032042;28;20513;-68
2022/06/02 09:08:43;;;;;;;1.70;0.90;;;16.20;99.90;;;;;;5053459;28;20037;-68
2022/06/02 09:11:29;;;;;;;8.45;1.38;;;16.30;99.90;;;;;;5053621;28;20033;-68
2022/06/02 09:14:16;;;;;;;2.95;1.30;;;16.60;99.90;;;;;;5036944;28;20120;-68
2022/06/02 09:17:11;;;;;;;3.83;1.38;;;16.70;99.90;;;;;;5053376;28;20075;-68
2022/06/02 09:20:05;;;;;;;4.85;1.20;;;16.70;99.90;;;;;;5053731;28;20048;-68
2022/06/02 09:22:51;;;;;;;3.53;1.17;;;16.60;99.90;;;;;;5054650;28;20098;-68
2022/06/02 09:25:40;;;;;;;2.05;1.08;;;16.60;99.90;;;;;;5053009;28;20049;-68
2022/06/02 09:28:23;;;;;;;3.53;1.38;;;16.60;99.90;;;;;;5053195;28;20493;-68
2022/06/02 09:31:31;;;;;;;2.35;1.17;;;16.60;99.90;;;;;;5053206;28;20044;-68
2022/06/02 09:33:57;;;;;;;4.18;1.63;;;16.70;99.90;;;;;;5042685;28;20119;-68
2022/06/02 09:37:04;;;;;;;3.70;1.55;;;16.90;99.90;;;;;;5053046;28;20045;-68
2022/06/02 09:40:14;;;;;;;2.00;1.30;;;17.10;99.90;;;;;;5053126;28;20041;-68
2022/06/02 09:42:52;;;;;;;3.20;1.05;;;17.10;99.90;;;;;;5043259;28;20124;-68
2022/06/02 09:45:43;;;;;;;3.70;1.20;;;16.90;99.90;;;;;;5036344;28;20056;-68
2022/06/02 09:48:30;;;;;;;3.20;1.20;;;17.00;99.90;;;;;;5052770;28;20128;-69
2022/06/02 09:51:10;;;;;;;1.98;1.00;;;17.20;99.90;;;;;;5052820;28;20520;-69
2022/06/02 09:53:59;;;;;;;2.63;1.02;;;17.30;99.90;;;;;;5052784;28;20033;-69
2022/06/02 09:56:52;;;;;;;3.20;1.00;;;17.70;99.90;;;;;;5052702;28;20045;-69
2022/06/02 09:59:36;;;;;;;;;;;18.00;99.90;;;;;;5053112;28;20033;-69
2022/06/02 10:02:23;;;;;;;2.42;0.90;;;17.90;99.90;;;;;;5052886;28;19916;-69
2022/06/02 10:04:58;;;;;;;2.17;1.10;;;18.00;99.90;;;;;;5036240;28;20092;-69
2022/06/02 10:07:48;;;;;;;3.22;1.00;;;18.20;99.90;;;;;;5052593;28;20084;-69
2022/06/02 10:10:41;;;;;;;4.10;1.20;;;18.60;99.90;;;;;;5052483;28;20041;-69
2022/06/02 10:13:37;;;;;;;2.40;1.10;;;18.50;99.90;;;;;;5052292;28;20048;-69
2022/06/02 10:16:31;;;;;;;4.35;1.00;;;18.30;99.90;;;;;;5052316;28;20556;-68
2022/06/02 10:19:17;;;;;;;5.00;1.38;;;18.30;99.90;;;;;;5052331;28;20489;-69
2022/06/02 10:21:49;;;;;;;2.88;1.20;;;18.30;99.90;;;;;;5052527;28;20085;-69
2022/06/02 10:24:51;;;;;;;2.75;1.20;;;18.10;99.90;;;;;;5052199;28;20048;-69
2022/06/02 10:27:48;;;;;;;4.47;1.27;;;18.20;99.90;;;;;;5052164;28;20040;-69
2022/06/02 10:30:36;;;;;;;3.03;1.13;;;18.40;99.90;;;;;;5051974;28;20067;-68
2022/06/02 10:33:40;;;;;;;2.05;1.10;;;19.00;99.90;;;;;;5052300;28;20086;-69
2022/06/02 10:36:44;;;;;;;2.40;0.93;;;19.30;99.90;;;;;;5035506;28;20045;-69
2022/06/02 10:39:39;;;;;;;3.88;1.00;;;19.50;98.10;;;;;;5038110;28;20085;-69
2022/06/02 10:42:31;;;;;;;4.03;0.93;;;19.30;99.90;;;;;;5051999;28;20041;-69
2022/06/02 10:45:30;;;;;;;2.67;1.33;;;19.00;99.90;;;;;;5052186;28;20049;-69
2022/06/02 10:48:02;;;;;;;2.72;1.13;;;18.70;99.90;;;;;;5052080;28;20045;-69
2022/06/02 10:51:05;;;;;;;2.88;1.10;;;18.40;99.90;;;;;;5051814;28;20094;-69
2022/06/02 10:53:46;;;;;;;;;;;18.20;99.90;;;;;;5015222;28;20178;-69
2022/06/02 10:56:11;;;;;;;1.40;0.73;;;17.90;99.90;;;;;;5051761;28;19931;-69
2022/06/02 10:59:13;;;;;;;3.50;0.95;;;17.80;99.90;;;;;;5052001;28;20440;-69
2022/06/02 11:01:58;;;;;;;1.70;0.80;;;17.80;99.90;;;;;;5012236;28;20052;-69
2022/06/02 11:04:34;;;;;;;1.98;1.00;;;18.10;99.90;;;;;;5051755;28;20036;-69
2022/06/02 11:07:52;;;;;;;4.05;0.90;;;18.70;99.90;;;;;;5051519;28;20087;-69
2022/06/02 11:10:38;;;;;;;1.80;0.98;;;19.00;99.90;;;;;;5051736;28;20041;-69
2022/06/02 11:13:51;;;;;;;3.08;1.00;;;19.00;99.50;;;;;;5051646;28;20456;-69
2022/06/02 11:16:38;;;;;;;1.58;0.90;;;18.90;99.90;;;;;;5051432;28;20041;-69
2022/06/02 11:19:40;;;;;;;2.53;1.08;;;19.00;99.90;;;;;;5034908;28;20033;-69
2022/06/02 11:22:44;;;;;;;2.83;1.10;;;19.30;99.90;;;;;;4986048;28;20196;-69
2022/06/02 11:25:29;;;;;;;4.43;0.95;;;19.80;99.90;;;;;;5035165;28;20052;-69
2022/06/02 11:28:13;;;;;;;2.28;0.98;;;20.20;99.30;;;;;;5051639;28;20393;-69
2022/06/02 11:31:06;;;;;;;1.70;1.00;;;20.60;95.00;;;;;;5034808;28;20056;-69
2022/06/02 11:33:51;;;;;;;2.92;0.93;;;20.60;91.00;;;;;;5051490;28;20516;-69
2022/06/02 11:36:39;;;;;;;3.97;1.02;;;20.90;81.80;;;;;;5051430;28;20049;-69
2022/06/02 11:39:42;;;;;;;3.85;1.30;;;21.10;87.40;;;;;;5051434;28;20069;-70
2022/06/02 11:42:32;;;;;;;7.83;1.10;;;21.50;92.50;;;;;;5051625;28;20101;-71
2022/06/02 11:45:16;;;;;;;3.17;0.85;;;21.90;91.30;;;;;;5051631;28;20045;-71
2022/06/02 11:48:01;;;;;;;3.38;1.20;;;22.00;88.90;;;;;;5034732;28;20095;-71
2022/06/02 11:50:48;;;;;;;3.22;0.88;;;22.10;80.30;;;;;;5051343;28;20119;-71
2022/06/02 11:53:37;;;;;;;2.15;0.80;;;22.20;79.60;;;;;;5051235;28;20448;-71
2022/06/02 11:56:38;;;;;;;2.97;1.08;;;22.40;70.80;;;;;;5051383;28;20103;-71
2022/06/02 11:59:35;;;;;;;3.88;0.95;;;22.30;68.70;;;;;;5034689;28;20449;-70
2022/06/02 12:02:32;;;;;;;2.72;0.80;;;22.50;83.70;;;;;;5051162;28;20082;-70
2022/06/02 12:05:16;;;;;;;2.08;0.70;;;22.60;72.80;;;;;;5051731;28;20040;-70
2022/06/02 12:08:06;;;;;;;3.13;0.70;;;22.80;75.80;;;;;;5054631;28;20435;-70
2022/06/02 12:11:15;;;;;;;3.10;0.95;;;22.80;75.80;;;;;;5045130;28;20049;-70
2022/06/02 12:13:58;;;;;;;2.88;0.68;;;22.80;73.20;;;;;;4978482;28;20145;-70
2022/06/02 12:16:46;;;;;;;3.17;1.02;;;22.50;74.20;;;;;;4961923;28;20415;-70
2022/06/02 12:19:45;;;;;;;1.77;0.70;;;22.10;68.30;;;;;;4978373;28;20082;-70
2022/06/02 12:22:50;;;;;;;2.55;1.05;;;21.60;70.40;;;;;;4978283;28;20547;-69
2022/06/02 12:25:15;;;;;;;4.53;0.70;;;21.30;86.90;;;;;;4978289;28;20050;-69
2022/06/02 12:28:02;;;;;;;2.53;0.88;;;21.00;89.00;;;;;;4978151;28;20399;-70
2022/06/02 12:30:30;;;;;;;2.30;1.13;;;20.90;90.70;;;;;;4978094;28;20487;-69
2022/06/02 12:33:06;;;;;;;1.25;0.65;;;20.70;92.40;;;;;;4977876;28;20414;-69
2022/06/02 12:35:47;;;;;;;1.27;0.60;;;20.60;91.10;;;;;;4977837;28;20055;-69
2022/06/02 12:38:45;;;;;;;1.80;1.08;;;20.50;93.30;;;;;;4977710;28;20074;-70
2022/06/02 12:41:59;;;;;;;2.38;0.80;;;20.40;94.30;;;;;;4970055;28;20458;-69
2022/06/02 12:45:04;;;;;;;2.45;0.75;;;20.30;94.20;;;;;;4917211;29;20529;-69
2022/06/02 12:47:45;;;;;;;3.55;0.80;;;20.30;93.50;;;;;;4949122;28;20533;-70
2022/06/02 12:50:34;;;;;;;2.95;0.80;;;20.20;93.80;;;;;;5049976;28;20049;-70
2022/06/02 12:53:37;;;;;;;4.05;0.95;;;20.20;92.80;;;;;;5054085;28;20485;-69
2022/06/02 12:56:21;;;;;;;;;;;20.60;97.80;;;;;;5037504;28;20515;-69
2022/06/02 12:59:26;;;;;;;1.83;0.70;;;20.60;89.50;;;;;;5053829;28;19947;-69
2022/06/02 13:02:05;;;;;;;1.83;0.68;;;20.50;94.30;;;;;;5053737;28;20398;-69
2022/06/02 13:04:53;;;;;;;1.90;0.70;;;20.40;90.80;;;;;;5053793;28;20037;-69
2022/06/02 13:07:31;;;;;;;2.90;0.90;;;20.30;88.40;;;;;;5053484;28;20056;-69
2022/06/02 13:10:12;;;;;;;2.10;0.80;;;20.20;86.80;;;;;;5053664;28;20049;-69
2022/06/02 13:12:56;;;;;;;3.80;1.10;;;20.10;91.90;;;;;;5037006;28;20044;-69
2022/06/02 13:15:48;;;;;;;2.88;0.82;;;20.20;93.90;;;;;;5037074;28;20048;-69
2022/06/02 13:18:51;;;;;;;1.20;0.60;;;20.60;94.80;;;;;;5053657;28;20041;-70
2022/06/02 13:21:26;;;;;;;3.10;0.60;;;21.20;87.80;;;;;;5053428;28;20051;-70
2022/06/02 13:24:14;;;;;;;2.58;0.77;;;21.60;85.00;;;;;;5036769;28;20463;-69
2022/06/02 13:26:42;;;;;;;2.53;0.85;;;22.00;86.80;;;;;;5053433;28;20045;-69
2022/06/02 13:29:39;;;;;;;3.15;0.70;;;22.40;75.80;;;;;;5053375;28;20056;-69
2022/06/02 13:32:39;;;;;;;1.45;0.70;;;22.70;71.00;;;;;;5053134;28;20037;-69
2022/06/02 13:35:22;;;;;;;1.63;0.73;;;22.90;67.70;;;;;;5053445;28;20045;-69
2022/06/02 13:38:11;;;;;;;2.67;0.80;;;23.10;64.50;;;;;;5053078;28;20096;-69
2022/06/02 13:40:45;;;;;;;3.75;0.68;;;23.30;64.90;;;;;;5053259;28;20103;-69
2022/06/02 13:43:32;;;;;;;1.52;0.60;;;23.40;63.30;;;;;;5053265;28;20124;-69
2022/06/02 13:46:36;;;;;;;1.42;0.63;;;23.50;57.80;;;;;;5054196;28;20044;-69
2022/06/02 13:49:10;;;;;;;1.90;0.60;;;23.60;60.00;;;;;;5052855;28;20508;-69
2022/06/02 13:51:58;;;;;;;2.25;0.60;;;23.70;58.10;;;;;;5052750;28;20503;-71
2022/06/02 13:58:13;;;;;;;2.60;0.70;;;23.90;61.60;;;;;;5052522;28;20128;-70
2022/06/02 14:00:54;;;;;;;2.47;0.82;;;23.90;62.50;;;;;;5052724;28;20052;-70
2022/06/02 14:03:45;;;;;;;5.53;0.80;;;23.80;66.90;;;;;;5053151;28;20033;-69
2022/06/02 14:06:19;;;;;;;3.10;0.75;;;23.40;66.40;;;;;;5052805;28;20457;-69
2022/06/02 14:08:50;;;;;;;2.53;0.70;;;23.00;69.80;;;;;;5052990;28;20044;-69
2022/06/02 14:11:38;;;;;;;3.20;0.63;;;22.60;67.30;;;;;;5035993;28;20051;-69
2022/06/02 14:14:27;;;;;;;1.67;0.70;;;22.40;71.60;;;;;;5036025;28;20113;-69
2022/06/02 14:16:55;;;;;;;2.65;0.80;;;22.10;75.20;;;;;;5052217;28;20052;-69
2022/06/02 14:19:37;;;;;;;2.90;0.60;;;22.00;76.40;;;;;;5035715;28;20503;-69
2022/06/02 14:22:25;;;;;;;2.92;0.70;;;22.10;85.10;;;;;;5035680;28;20037;-69
2022/06/02 14:25:09;;;;;;;1.20;0.60;;;22.20;76.90;;;;;;5052463;28;20403;-69
2022/06/02 14:27:51;;;;;;;2.05;0.60;;;22.20;70.10;;;;;;5051777;28;20041;-69
2022/06/02 14:30:28;;;;;;;1.85;0.77;;;22.20;67.20;;;;;;5052228;28;20074;-69
2022/06/02 14:33:31;;;;;;;2.17;0.73;;;22.50;75.70;;;;;;5053415;28;20040;-69
2022/06/02 14:36:21;;;;;;;1.80;0.70;;;22.60;67.40;;;;;;5049228;28;20067;-69
2022/06/02 14:39:04;;;;;;;2.97;0.82;;;22.70;64.00;;;;;;5052339;28;20051;-70
2022/06/02 14:41:33;;;;;;;2.72;0.88;;;22.80;68.10;;;;;;5052010;28;20044;-69
2022/06/02 14:44:22;;;;;;;1.88;0.70;;;22.90;67.80;;;;;;5052203;28;20044;-69